Luke — WDC9569 — position and weather

sailwx.info

Track history (hours):
 
Tides and Currents Weather Stations Pressure Air Temp Water Temp Dewpoint Dewpoint Depression Visibility Wind Speed Wind Dir Waves Ship Positions

Luke

Owner: SO CAL SHIP SERVICES, INC, TERMINAL ISLAND, CA. More information available from US FCC via Universal Licensing System and Coast Guard Vessel Documentation Center.

Last reported at 2018-Jun-18 11:41 UTC. Time now 2018-Jun-19 17:44 UTC.
Position N 33°44' W 118°16'.

Length 31 m; draft 2.4 m.

Type: Ship (hazmat cat B). MMSI: 367104040.

Date/timePositionNaut miles runAvg speedWind from/ knotsBaromVisibWave heightAir tempDewpointWater temp
2018-Jun-18 11:41N 33°44' W 118°16'0 0.0
2018-Jun-17 15:33N 33°44' W 118°16'0 0.0
2018-Jun-17 15:30N 33°44' W 118°16'0 0.0
2018-Jun-17 15:00N 33°44' W 118°16'0 0.0
2018-Jun-17 14:31N 33°44' W 118°16'5 9.8
2018-Jun-17 14:00N 33°41' W 118°12'713.4
2018-Jun-17 13:30N 33°35' W 118°08'0 0.0
2018-Jun-17 12:59N 33°35' W 118°08'613.3
2018-Jun-17 12:30N 33°40' W 118°12'510.7
2018-Jun-17 12:00N 33°44' W 118°16'0 0.0
2018-Jun-17 11:30N 33°44' W 118°16'0 0.0
2018-Jun-17 01:45N 33°44' W 118°16'1 5.8
2018-Jun-17 01:30N 33°43' W 118°15'816.0
2018-Jun-17 01:00N 33°37' W 118°09'3 5.6
2018-Jun-17 00:30N 33°34' W 118°07'510.5
2018-Jun-17 00:00N 33°39' W 118°11'713.8
2018-Jun-16 23:30N 33°44' W 118°16'0 0.6
2018-Jun-16 23:01N 33°44' W 118°16'0 0.0
2018-Jun-16 22:31N 33°44' W 118°16'0 0.0
2018-Jun-16 22:01N 33°44' W 118°16'611.2
2018-Jun-16 21:30N 33°40' W 118°12'6 6.0
2018-Jun-16 20:31N 33°35' W 118°08'0 1.5
2018-Jun-16 20:27N 33°35' W 118°08'715.2
2018-Jun-16 20:00N 33°40' W 118°13'5 9.9
2018-Jun-16 19:31N 33°44' W 118°16'3 5.6
2018-Jun-16 19:00N 33°42' W 118°14'816.5
2018-Jun-16 18:30N 33°35' W 118°08'2 3.5
2018-Jun-16 18:00N 33°34' W 118°07'0 0.0
2018-Jun-16 17:30N 33°34' W 118°07'0 0.0
2018-Jun-16 17:00N 33°34' W 118°07'1 2.4
2018-Jun-16 16:28N 33°35' W 118°08'0 0.1
2018-Jun-16 15:59N 33°35' W 118°08'611.6
2018-Jun-16 15:30N 33°39' W 118°12'612.0
2018-Jun-16 15:00N 33°44' W 118°16'0 0.1
2018-Jun-16 14:30N 33°44' W 118°16'0 0.9
2018-Jun-16 14:00N 33°44' W 118°16'815.3
2018-Jun-16 13:29N 33°37' W 118°10'3 7.3
2018-Jun-16 13:00N 33°35' W 118°08'713.2
2018-Jun-16 12:30N 33°40' W 118°12'510.5
2018-Jun-16 12:00N 33°44' W 118°16'0 0.0
2018-Jun-16 11:30N 33°44' W 118°16'0 0.0
2018-Jun-16 02:07N 33°44' W 118°16'0 0.2
2018-Jun-16 02:00N 33°44' W 118°16'4 8.2
2018-Jun-16 01:30N 33°41' W 118°13'814.9
2018-Jun-16 01:00N 33°35' W 118°08'1 2.8
2018-Jun-16 00:30N 33°34' W 118°07'612.2
2018-Jun-16 00:01N 33°39' W 118°11'713.6
2018-Jun-15 23:30N 33°44' W 118°16'0 0.1
2018-Jun-15 23:01N 33°44' W 118°16'1 1.8
2018-Jun-15 22:30N 33°43' W 118°16'815.8
2018-Jun-15 22:00N 33°37' W 118°10'4 7.9
2018-Jun-15 21:29N 33°34' W 118°07'3 5.6
2018-Jun-15 20:59N 33°37' W 118°08'714.2
2018-Jun-15 20:31N 33°43' W 118°08'4 7.5
2018-Jun-15 20:00N 33°44' W 118°12'4 7.1
2018-Jun-15 19:30N 33°44' W 118°16'0 0.0
2018-Jun-15 19:00N 33°44' W 118°16'0 0.0
2018-Jun-15 18:30N 33°44' W 118°16'0 0.0
2018-Jun-15 18:00N 33°44' W 118°16'0 0.7
2018-Jun-15 17:30N 33°44' W 118°17'0 0.4
2018-Jun-15 17:00N 33°44' W 118°16'713.4
2018-Jun-15 16:31N 33°39' W 118°11'611.3
2018-Jun-15 16:00N 33°34' W 118°07'1 1.6
2018-Jun-15 15:29N 33°35' W 118°08'613.1
2018-Jun-15 15:01N 33°40' W 118°13'510.6
2018-Jun-15 14:30N 33°44' W 118°16'0 0.8
2018-Jun-15 14:00N 33°44' W 118°16'815.4
2018-Jun-15 13:30N 33°38' W 118°11'3 5.4
2018-Jun-15 12:56N 33°35' W 118°08'716.4
2018-Jun-15 12:31N 33°41' W 118°13'4 8.1
2018-Jun-15 11:59N 33°44' W 118°16'0 0.0
2018-Jun-15 02:09N 33°44' W 118°16'0 0.0
2018-Jun-15 02:00N 33°44' W 118°16'3 5.8
2018-Jun-15 01:30N 33°42' W 118°14'815.6
2018-Jun-15 01:00N 33°36' W 118°08'2 4.4
2018-Jun-15 00:30N 33°34' W 118°07'612.3
2018-Jun-15 00:01N 33°39' W 118°11'713.4
2018-Jun-14 23:30N 33°44' W 118°16'0 0.0
2018-Jun-14 23:00N 33°44' W 118°16'0 0.0
2018-Jun-14 22:30N 33°44' W 118°16'0 0.0
2018-Jun-14 21:58N 33°44' W 118°16'4 8.7
2018-Jun-14 21:30N 33°41' W 118°13'714.8
2018-Jun-14 21:00N 33°35' W 118°08'0 0.2
2018-Jun-14 20:30N 33°35' W 118°08'714.4
2018-Jun-14 20:00N 33°41' W 118°13'4 8.9
2018-Jun-14 19:30N 33°44' W 118°16'0 0.0
2018-Jun-14 19:00N 33°44' W 118°16'0 0.0
2018-Jun-14 18:29N 33°44' W 118°16'0 0.0
2018-Jun-14 18:00N 33°44' W 118°16'0 0.0
2018-Jun-14 17:30N 33°44' W 118°16'0 0.0
2018-Jun-14 17:00N 33°44' W 118°16'2 4.9
2018-Jun-14 16:30N 33°42' W 118°14'816.3
2018-Jun-14 16:00N 33°36' W 118°08'1 2.2
2018-Jun-14 15:30N 33°35' W 118°08'612.0
2018-Jun-14 15:00N 33°40' W 118°11'611.7
2018-Jun-14 14:30N 33°44' W 118°16'0 0.2
2018-Jun-14 14:01N 33°44' W 118°16'612.9
2018-Jun-14 13:30N 33°39' W 118°11'612.5
2018-Jun-14 13:00N 33°34' W 118°07'611.8
2018-Jun-14 12:30N 33°38' W 118°12'713.9
2018-Jun-14 12:00N 33°44' W 118°16'0 0.4
2018-Jun-14 11:30N 33°44' W 118°16'0 0.0
2018-Jun-14 01:48N 33°44' W 118°16'2 8.3
2018-Jun-14 01:30N 33°42' W 118°14'815.4
2018-Jun-14 01:00N 33°36' W 118°08'3 5.8
2018-Jun-14 00:30N 33°34' W 118°07'5 9.6
2018-Jun-14 00:00N 33°38' W 118°10'816.0
2018-Jun-13 23:30N 33°44' W 118°16'0 0.8
2018-Jun-13 23:00N 33°44' W 118°16'0 0.0
2018-Jun-13 22:30N 33°44' W 118°16'0 0.0
2018-Jun-13 22:00N 33°44' W 118°16'1 1.5
2018-Jun-13 21:30N 33°43' W 118°16'815.6
2018-Jun-13 21:00N 33°37' W 118°10'3 5.3
2018-Jun-13 20:24N 33°35' W 118°08'513.2
2018-Jun-13 20:00N 33°39' W 118°11'612.6
2018-Jun-13 19:30N 33°44' W 118°16'0 0.0
2018-Jun-13 19:00N 33°44' W 118°16'0 0.0
2018-Jun-13 18:30N 33°44' W 118°16'0 0.0
2018-Jun-13 18:00N 33°44' W 118°16'0 0.6
2018-Jun-13 17:30N 33°44' W 118°16'0 0.2
2018-Jun-13 17:00N 33°44' W 118°16'0 0.3
2018-Jun-13 16:30N 33°44' W 118°16'714.7
2018-Jun-13 16:00N 33°38' W 118°10'5 8.8
2018-Jun-13 15:29N 33°34' W 118°07'612.5
2018-Jun-13 15:00N 33°39' W 118°12'612.4
2018-Jun-13 14:30N 33°44' W 118°16'0 0.5
2018-Jun-13 14:00N 33°44' W 118°16'714.2
2018-Jun-13 13:30N 33°38' W 118°11'510.0
2018-Jun-13 12:59N 33°34' W 118°07'612.9
2018-Jun-13 12:30N 33°39' W 118°12'612.7
2018-Jun-13 12:00N 33°44' W 118°16'0 0.0
2018-Jun-13 02:02N 33°44' W 118°16'0 0.2
2018-Jun-13 02:01N 33°44' W 118°16'611.8
2018-Jun-13 01:30N 33°40' W 118°12'713.9
2018-Jun-13 01:00N 33°34' W 118°07'1 2.4
2018-Jun-13 00:30N 33°35' W 118°08'0 0.0
2018-Jun-12 23:59N 33°35' W 118°08'1 1.3
2018-Jun-12 23:30N 33°34' W 118°07'3 5.1
2018-Jun-12 23:00N 33°37' W 118°09'816.3
2018-Jun-12 22:30N 33°43' W 118°15'2 3.1
2018-Jun-12 22:00N 33°44' W 118°16'713.9
2018-Jun-12 21:30N 33°39' W 118°11'5 8.3
2018-Jun-12 20:57N 33°35' W 118°08'0 0.2
2018-Jun-12 20:30N 33°35' W 118°08'612.9
2018-Jun-12 20:00N 33°40' W 118°12'510.5
2018-Jun-12 19:30N 33°44' W 118°16'0 0.0
2018-Jun-12 19:00N 33°44' W 118°16'0 0.0
2018-Jun-12 18:30N 33°44' W 118°16'0 0.0
2018-Jun-12 18:00N 33°44' W 118°16'0 0.0
2018-Jun-12 17:30N 33°44' W 118°16'0 0.0
2018-Jun-12 17:00N 33°44' W 118°16'0 0.4
2018-Jun-12 16:30N 33°44' W 118°16'714.4
2018-Jun-12 16:00N 33°38' W 118°11'4 8.9
2018-Jun-12 15:30N 33°35' W 118°08'510.2
2018-Jun-12 15:00N 33°39' W 118°11'713.8
2018-Jun-12 14:31N 33°44' W 118°16'3 6.2
2018-Jun-12 14:00N 33°42' W 118°14'815.5
2018-Jun-12 13:30N 33°35' W 118°08'0 0.9
2018-Jun-12 13:00N 33°35' W 118°08'713.7
2018-Jun-12 12:30N 33°40' W 118°13'5 9.4
2018-Jun-12 12:00N 33°44' W 118°16'0 0.0
2018-Jun-12 01:44N 33°44' W 118°16'1 3.8
2018-Jun-12 01:30N 33°43' W 118°16'816.0
2018-Jun-12 01:00N 33°37' W 118°09'4 8.4
2018-Jun-12 00:30N 33°34' W 118°07'2 4.3
2018-Jun-12 00:00N 33°36' W 118°08'816.3
2018-Jun-11 23:30N 33°42' W 118°14'3 5.5
2018-Jun-11 23:01N 33°44' W 118°16'0 0.0
2018-Jun-11 22:31N 33°44' W 118°16'0 0.0
2018-Jun-11 22:00N 33°44' W 118°16'0 0.6
2018-Jun-11 21:31N 33°44' W 118°16'713.8
2018-Jun-11 21:00N 33°39' W 118°10'611.4
2018-Jun-11 20:30N 33°34' W 118°07'5 9.7
2018-Jun-11 20:00N 33°38' W 118°10'815.3
2018-Jun-11 19:30N 33°44' W 118°16'1 1.1
2018-Jun-11 19:00N 33°44' W 118°16'0 0.0
2018-Jun-11 18:30N 33°44' W 118°16'0 0.0
2018-Jun-11 18:00N 33°44' W 118°16'0 0.0
2018-Jun-11 17:30N 33°44' W 118°16'0 0.0
2018-Jun-11 17:00N 33°44' W 118°16'0 0.2
2018-Jun-11 16:30N 33°44' W 118°16'713.4
2018-Jun-11 16:00N 33°39' W 118°11'611.8
2018-Jun-11 15:29N 33°34' W 118°07'612.6
2018-Jun-11 15:00N 33°39' W 118°11'713.6
2018-Jun-11 14:30N 33°44' W 118°16'0 0.2
2018-Jun-11 14:00N 33°44' W 118°16'611.9
2018-Jun-11 13:30N 33°39' W 118°12'713.5
2018-Jun-11 13:00N 33°34' W 118°07'611.5
2018-Jun-11 12:30N 33°38' W 118°11'714.2
2018-Jun-11 12:00N 33°44' W 118°16'0 0.0
2018-Jun-11 01:28N 33°44' W 118°16'611.8
2018-Jun-11 01:00N 33°40' W 118°12'714.0
2018-Jun-11 00:30N 33°34' W 118°07'510.9
2018-Jun-11 00:00N 33°38' W 118°11'714.1
2018-Jun-10 23:30N 33°44' W 118°16'0 0.4
2018-Jun-10 23:00N 33°44' W 118°16'0 0.0
2018-Jun-10 22:30N 33°44' W 118°16'0 0.0
2018-Jun-10 22:00N 33°44' W 118°16'0 0.0
2018-Jun-10 21:30N 33°44' W 118°16'3 5.4
2018-Jun-10 21:01N 33°42' W 118°14'816.3
2018-Jun-10 20:30N 33°36' W 118°08'611.9
2018-Jun-10 20:00N 33°40' W 118°13'510.0
2018-Jun-10 19:31N 33°44' W 118°16'0 0.0
2018-Jun-10 19:00N 33°44' W 118°16'0 0.0
2018-Jun-10 18:31N 33°44' W 118°16'0 0.0
2018-Jun-10 18:00N 33°44' W 118°16'0 0.0
2018-Jun-10 17:30N 33°44' W 118°16'0 0.7
2018-Jun-10 17:01N 33°44' W 118°17'3 6.7
2018-Jun-10 16:30N 33°41' W 118°14'715.2
2018-Jun-10 16:00N 33°35' W 118°08'1 0.9
2018-Jun-10 15:13N 33°35' W 118°08'210.2
2018-Jun-10 15:00N 33°37' W 118°10'9 9.3
2018-Jun-10 14:00N 33°44' W 118°16'511.0
2018-Jun-10 13:30N 33°40' W 118°12'4 4.9
2018-Jun-10 12:41N 33°36' W 118°10'316.0
2018-Jun-10 12:30N 33°39' W 118°12'713.2
2018-Jun-10 12:00N 33°44' W 118°16'0 0.0
2018-Jun-10 01:21N 33°44' W 118°16'410.7
2018-Jun-10 01:01N 33°41' W 118°13'811.4
2018-Jun-10 00:19N 33°35' W 118°08'414.0
2018-Jun-10 00:00N 33°38' W 118°11'714.4
2018-Jun-09 23:30N 33°44' W 118°16'0 0.2
2018-Jun-09 23:00N 33°44' W 118°16'0 0.0
2018-Jun-09 22:30N 33°44' W 118°16'0 0.0
2018-Jun-09 22:00N 33°44' W 118°16'0 0.0
2018-Jun-09 21:30N 33°44' W 118°16'813.7
2018-Jun-09 20:55N 33°38' W 118°10'2 2.7
2018-Jun-09 20:15N 33°36' W 118°09'417.1
2018-Jun-09 20:00N 33°40' W 118°12'510.9
2018-Jun-09 19:30N 33°44' W 118°16'0 0.0
2018-Jun-09 19:00N 33°44' W 118°16'610.9
2018-Jun-09 18:30N 33°40' W 118°12'7 6.1
2018-Jun-09 17:17N 33°34' W 118°07'6 2.7
2018-Jun-09 14:57N 33°39' W 118°11'614.2
2018-Jun-09 14:30N 33°44' W 118°16'0 0.7
2018-Jun-09 14:00N 33°44' W 118°16'4 8.6
2018-Jun-09 13:31N 33°41' W 118°13'7 9.6
2018-Jun-09 12:46N 33°35' W 118°08'516.5
2018-Jun-09 12:28N 33°39' W 118°11'614.0
2018-Jun-09 12:00N 33°44' W 118°16'0 0.0
2018-Jun-09 02:01N 33°44' W 118°16'0 0.6
2018-Jun-09 02:00N 33°44' W 118°16'4 8.7
2018-Jun-09 01:30N 33°41' W 118°13'916.1
2018-Jun-09 00:59N 33°34' W 118°07'1 2.5
2018-Jun-09 00:31N 33°35' W 118°08'0 0.0
2018-Jun-09 00:01N 33°35' W 118°08'5 8.2
2018-Jun-08 23:23N 33°39' W 118°11'616.4
2018-Jun-08 23:00N 33°43' W 118°16'1 1.3
2018-Jun-08 22:30N 33°44' W 118°16'3 5.8
2018-Jun-08 22:00N 33°43' W 118°13'4 8.0
2018-Jun-08 21:30N 33°44' W 118°08'815.7
2018-Jun-08 21:00N 33°36' W 118°08'1 1.7
2018-Jun-08 20:28N 33°35' W 118°08'816.7
2018-Jun-08 20:01N 33°41' W 118°13'4 7.4
2018-Jun-08 19:31N 33°44' W 118°16'0 0.0
2018-Jun-08 19:01N 33°44' W 118°16'0 0.0
2018-Jun-08 18:29N 33°44' W 118°16'0 0.0
2018-Jun-08 18:01N 33°44' W 118°16'0 0.0
2018-Jun-08 17:31N 33°44' W 118°16'0 0.7
2018-Jun-08 17:00N 33°44' W 118°16'4 7.6
2018-Jun-08 16:30N 33°41' W 118°13'5 4.2
2018-Jun-08 15:13N 33°37' W 118°10'315.6
2018-Jun-08 15:00N 33°40' W 118°12'611.9
2018-Jun-08 14:31N 33°44' W 118°16'0 0.0
2018-Jun-08 14:01N 33°44' W 118°16'611.1
2018-Jun-08 13:30N 33°40' W 118°12'6 8.1
2018-Jun-08 12:46N 33°35' W 118°08'516.3
2018-Jun-08 12:28N 33°39' W 118°11'714.4
2018-Jun-08 12:00N 33°44' W 118°16'  
Track history (hours):
 
Tides and Currents Weather Stations Pressure Air Temp Water Temp Dewpoint Dewpoint Depression Visibility Wind Speed Wind Dir Waves Ship Positions

Luke

Owner: SO CAL SHIP SERVICES, INC, TERMINAL ISLAND, CA. More information available from US FCC via Universal Licensing System and Coast Guard Vessel Documentation Center.

Last reported at 2018-Jun-18 11:41 UTC. Time now 2018-Jun-19 17:44 UTC.
Position N 33°44' W 118°16'.

Length 31 m; draft 2.4 m.

Type: Ship (hazmat cat B). MMSI: 367104040.

Date/timePositionNaut miles runAvg speedWind from/ knotsBaromVisibWave heightAir tempDewpointWater temp
2018-Jun-18 11:41N 33°44' W 118°16'0 0.0
2018-Jun-17 15:33N 33°44' W 118°16'0 0.0
2018-Jun-17 15:30N 33°44' W 118°16'0 0.0
2018-Jun-17 15:00N 33°44' W 118°16'0 0.0
2018-Jun-17 14:31N 33°44' W 118°16'5 9.8
2018-Jun-17 14:00N 33°41' W 118°12'713.4
2018-Jun-17 13:30N 33°35' W 118°08'0 0.0
2018-Jun-17 12:59N 33°35' W 118°08'613.3
2018-Jun-17 12:30N 33°40' W 118°12'510.7
2018-Jun-17 12:00N 33°44' W 118°16'0 0.0
2018-Jun-17 11:30N 33°44' W 118°16'0 0.0
2018-Jun-17 01:45N 33°44' W 118°16'1 5.8
2018-Jun-17 01:30N 33°43' W 118°15'816.0
2018-Jun-17 01:00N 33°37' W 118°09'3 5.6
2018-Jun-17 00:30N 33°34' W 118°07'510.5
2018-Jun-17 00:00N 33°39' W 118°11'713.8
2018-Jun-16 23:30N 33°44' W 118°16'0 0.6
2018-Jun-16 23:01N 33°44' W 118°16'0 0.0
2018-Jun-16 22:31N 33°44' W 118°16'0 0.0
2018-Jun-16 22:01N 33°44' W 118°16'611.2
2018-Jun-16 21:30N 33°40' W 118°12'6 6.0
2018-Jun-16 20:31N 33°35' W 118°08'0 1.5
2018-Jun-16 20:27N 33°35' W 118°08'715.2
2018-Jun-16 20:00N 33°40' W 118°13'5 9.9
2018-Jun-16 19:31N 33°44' W 118°16'3 5.6
2018-Jun-16 19:00N 33°42' W 118°14'816.5
2018-Jun-16 18:30N 33°35' W 118°08'2 3.5
2018-Jun-16 18:00N 33°34' W 118°07'0 0.0
2018-Jun-16 17:30N 33°34' W 118°07'0 0.0
2018-Jun-16 17:00N 33°34' W 118°07'1 2.4
2018-Jun-16 16:28N 33°35' W 118°08'0 0.1
2018-Jun-16 15:59N 33°35' W 118°08'611.6
2018-Jun-16 15:30N 33°39' W 118°12'612.0
2018-Jun-16 15:00N 33°44' W 118°16'0 0.1
2018-Jun-16 14:30N 33°44' W 118°16'0 0.9
2018-Jun-16 14:00N 33°44' W 118°16'815.3
2018-Jun-16 13:29N 33°37' W 118°10'3 7.3
2018-Jun-16 13:00N 33°35' W 118°08'713.2
2018-Jun-16 12:30N 33°40' W 118°12'510.5
2018-Jun-16 12:00N 33°44' W 118°16'0 0.0
2018-Jun-16 11:30N 33°44' W 118°16'0 0.0
2018-Jun-16 02:07N 33°44' W 118°16'0 0.2
2018-Jun-16 02:00N 33°44' W 118°16'4 8.2
2018-Jun-16 01:30N 33°41' W 118°13'814.9
2018-Jun-16 01:00N 33°35' W 118°08'1 2.8
2018-Jun-16 00:30N 33°34' W 118°07'612.2
2018-Jun-16 00:01N 33°39' W 118°11'713.6
2018-Jun-15 23:30N 33°44' W 118°16'0 0.1
2018-Jun-15 23:01N 33°44' W 118°16'1 1.8
2018-Jun-15 22:30N 33°43' W 118°16'815.8
2018-Jun-15 22:00N 33°37' W 118°10'4 7.9
2018-Jun-15 21:29N 33°34' W 118°07'3 5.6
2018-Jun-15 20:59N 33°37' W 118°08'714.2
2018-Jun-15 20:31N 33°43' W 118°08'4 7.5
2018-Jun-15 20:00N 33°44' W 118°12'4 7.1
2018-Jun-15 19:30N 33°44' W 118°16'0 0.0
2018-Jun-15 19:00N 33°44' W 118°16'0 0.0
2018-Jun-15 18:30N 33°44' W 118°16'0 0.0
2018-Jun-15 18:00N 33°44' W 118°16'0 0.7
2018-Jun-15 17:30N 33°44' W 118°17'0 0.4
2018-Jun-15 17:00N 33°44' W 118°16'713.4
2018-Jun-15 16:31N 33°39' W 118°11'611.3
2018-Jun-15 16:00N 33°34' W 118°07'1 1.6
2018-Jun-15 15:29N 33°35' W 118°08'613.1
2018-Jun-15 15:01N 33°40' W 118°13'510.6
2018-Jun-15 14:30N 33°44' W 118°16'0 0.8
2018-Jun-15 14:00N 33°44' W 118°16'815.4
2018-Jun-15 13:30N 33°38' W 118°11'3 5.4
2018-Jun-15 12:56N 33°35' W 118°08'716.4
2018-Jun-15 12:31N 33°41' W 118°13'4 8.1
2018-Jun-15 11:59N 33°44' W 118°16'0 0.0
2018-Jun-15 02:09N 33°44' W 118°16'0 0.0
2018-Jun-15 02:00N 33°44' W 118°16'3 5.8
2018-Jun-15 01:30N 33°42' W 118°14'815.6
2018-Jun-15 01:00N 33°36' W 118°08'2 4.4
2018-Jun-15 00:30N 33°34' W 118°07'612.3
2018-Jun-15 00:01N 33°39' W 118°11'713.4
2018-Jun-14 23:30N 33°44' W 118°16'0 0.0
2018-Jun-14 23:00N 33°44' W 118°16'0 0.0
2018-Jun-14 22:30N 33°44' W 118°16'0 0.0
2018-Jun-14 21:58N 33°44' W 118°16'4 8.7
2018-Jun-14 21:30N 33°41' W 118°13'714.8
2018-Jun-14 21:00N 33°35' W 118°08'0 0.2
2018-Jun-14 20:30N 33°35' W 118°08'714.4
2018-Jun-14 20:00N 33°41' W 118°13'4 8.9
2018-Jun-14 19:30N 33°44' W 118°16'0 0.0
2018-Jun-14 19:00N 33°44' W 118°16'0 0.0
2018-Jun-14 18:29N 33°44' W 118°16'0 0.0
2018-Jun-14 18:00N 33°44' W 118°16'0 0.0
2018-Jun-14 17:30N 33°44' W 118°16'0 0.0
2018-Jun-14 17:00N 33°44' W 118°16'2 4.9
2018-Jun-14 16:30N 33°42' W 118°14'816.3
2018-Jun-14 16:00N 33°36' W 118°08'1 2.2
2018-Jun-14 15:30N 33°35' W 118°08'612.0
2018-Jun-14 15:00N 33°40' W 118°11'611.7
2018-Jun-14 14:30N 33°44' W 118°16'0 0.2
2018-Jun-14 14:01N 33°44' W 118°16'612.9
2018-Jun-14 13:30N 33°39' W 118°11'612.5
2018-Jun-14 13:00N 33°34' W 118°07'611.8
2018-Jun-14 12:30N 33°38' W 118°12'713.9
2018-Jun-14 12:00N 33°44' W 118°16'0 0.4
2018-Jun-14 11:30N 33°44' W 118°16'0 0.0
2018-Jun-14 01:48N 33°44' W 118°16'2 8.3
2018-Jun-14 01:30N 33°42' W 118°14'815.4
2018-Jun-14 01:00N 33°36' W 118°08'3 5.8
2018-Jun-14 00:30N 33°34' W 118°07'5 9.6
2018-Jun-14 00:00N 33°38' W 118°10'816.0
2018-Jun-13 23:30N 33°44' W 118°16'0 0.8
2018-Jun-13 23:00N 33°44' W 118°16'0 0.0
2018-Jun-13 22:30N 33°44' W 118°16'0 0.0
2018-Jun-13 22:00N 33°44' W 118°16'1 1.5
2018-Jun-13 21:30N 33°43' W 118°16'815.6
2018-Jun-13 21:00N 33°37' W 118°10'3 5.3
2018-Jun-13 20:24N 33°35' W 118°08'513.2
2018-Jun-13 20:00N 33°39' W 118°11'612.6
2018-Jun-13 19:30N 33°44' W 118°16'0 0.0
2018-Jun-13 19:00N 33°44' W 118°16'0 0.0
2018-Jun-13 18:30N 33°44' W 118°16'0 0.0
2018-Jun-13 18:00N 33°44' W 118°16'0 0.6
2018-Jun-13 17:30N 33°44' W 118°16'0 0.2
2018-Jun-13 17:00N 33°44' W 118°16'0 0.3
2018-Jun-13 16:30N 33°44' W 118°16'714.7
2018-Jun-13 16:00N 33°38' W 118°10'5 8.8
2018-Jun-13 15:29N 33°34' W 118°07'612.5
2018-Jun-13 15:00N 33°39' W 118°12'612.4
2018-Jun-13 14:30N 33°44' W 118°16'0 0.5
2018-Jun-13 14:00N 33°44' W 118°16'714.2
2018-Jun-13 13:30N 33°38' W 118°11'510.0
2018-Jun-13 12:59N 33°34' W 118°07'612.9
2018-Jun-13 12:30N 33°39' W 118°12'612.7
2018-Jun-13 12:00N 33°44' W 118°16'0 0.0
2018-Jun-13 02:02N 33°44' W 118°16'0 0.2
2018-Jun-13 02:01N 33°44' W 118°16'611.8
2018-Jun-13 01:30N 33°40' W 118°12'713.9
2018-Jun-13 01:00N 33°34' W 118°07'1 2.4
2018-Jun-13 00:30N 33°35' W 118°08'0 0.0
2018-Jun-12 23:59N 33°35' W 118°08'1 1.3
2018-Jun-12 23:30N 33°34' W 118°07'3 5.1
2018-Jun-12 23:00N 33°37' W 118°09'816.3
2018-Jun-12 22:30N 33°43' W 118°15'2 3.1
2018-Jun-12 22:00N 33°44' W 118°16'713.9
2018-Jun-12 21:30N 33°39' W 118°11'5 8.3
2018-Jun-12 20:57N 33°35' W 118°08'0 0.2
2018-Jun-12 20:30N 33°35' W 118°08'612.9
2018-Jun-12 20:00N 33°40' W 118°12'510.5
2018-Jun-12 19:30N 33°44' W 118°16'0 0.0
2018-Jun-12 19:00N 33°44' W 118°16'0 0.0
2018-Jun-12 18:30N 33°44' W 118°16'0 0.0
2018-Jun-12 18:00N 33°44' W 118°16'0 0.0
2018-Jun-12 17:30N 33°44' W 118°16'0 0.0
2018-Jun-12 17:00N 33°44' W 118°16'0 0.4
2018-Jun-12 16:30N 33°44' W 118°16'714.4
2018-Jun-12 16:00N 33°38' W 118°11'4 8.9
2018-Jun-12 15:30N 33°35' W 118°08'510.2
2018-Jun-12 15:00N 33°39' W 118°11'713.8
2018-Jun-12 14:31N 33°44' W 118°16'3 6.2
2018-Jun-12 14:00N 33°42' W 118°14'815.5
2018-Jun-12 13:30N 33°35' W 118°08'0 0.9
2018-Jun-12 13:00N 33°35' W 118°08'713.7
2018-Jun-12 12:30N 33°40' W 118°13'5 9.4
2018-Jun-12 12:00N 33°44' W 118°16'0 0.0
2018-Jun-12 01:44N 33°44' W 118°16'1 3.8
2018-Jun-12 01:30N 33°43' W 118°16'816.0
2018-Jun-12 01:00N 33°37' W 118°09'4 8.4
2018-Jun-12 00:30N 33°34' W 118°07'2 4.3
2018-Jun-12 00:00N 33°36' W 118°08'816.3
2018-Jun-11 23:30N 33°42' W 118°14'3 5.5
2018-Jun-11 23:01N 33°44' W 118°16'0 0.0
2018-Jun-11 22:31N 33°44' W 118°16'0 0.0
2018-Jun-11 22:00N 33°44' W 118°16'0 0.6
2018-Jun-11 21:31N 33°44' W 118°16'713.8
2018-Jun-11 21:00N 33°39' W 118°10'611.4
2018-Jun-11 20:30N 33°34' W 118°07'5 9.7
2018-Jun-11 20:00N 33°38' W 118°10'815.3
2018-Jun-11 19:30N 33°44' W 118°16'1 1.1
2018-Jun-11 19:00N 33°44' W 118°16'0 0.0
2018-Jun-11 18:30N 33°44' W 118°16'0 0.0
2018-Jun-11 18:00N 33°44' W 118°16'0 0.0
2018-Jun-11 17:30N 33°44' W 118°16'0 0.0
2018-Jun-11 17:00N 33°44' W 118°16'0 0.2
2018-Jun-11 16:30N 33°44' W 118°16'713.4
2018-Jun-11 16:00N 33°39' W 118°11'611.8
2018-Jun-11 15:29N 33°34' W 118°07'612.6
2018-Jun-11 15:00N 33°39' W 118°11'713.6
2018-Jun-11 14:30N 33°44' W 118°16'0 0.2
2018-Jun-11 14:00N 33°44' W 118°16'611.9
2018-Jun-11 13:30N 33°39' W 118°12'713.5
2018-Jun-11 13:00N 33°34' W 118°07'611.5
2018-Jun-11 12:30N 33°38' W 118°11'714.2
2018-Jun-11 12:00N 33°44' W 118°16'0 0.0
2018-Jun-11 01:28N 33°44' W 118°16'611.8
2018-Jun-11 01:00N 33°40' W 118°12'714.0
2018-Jun-11 00:30N 33°34' W 118°07'510.9
2018-Jun-11 00:00N 33°38' W 118°11'714.1
2018-Jun-10 23:30N 33°44' W 118°16'0 0.4
2018-Jun-10 23:00N 33°44' W 118°16'0 0.0
2018-Jun-10 22:30N 33°44' W 118°16'0 0.0
2018-Jun-10 22:00N 33°44' W 118°16'0 0.0
2018-Jun-10 21:30N 33°44' W 118°16'3 5.4
2018-Jun-10 21:01N 33°42' W 118°14'816.3
2018-Jun-10 20:30N 33°36' W 118°08'611.9
2018-Jun-10 20:00N 33°40' W 118°13'510.0
2018-Jun-10 19:31N 33°44' W 118°16'0 0.0
2018-Jun-10 19:00N 33°44' W 118°16'0 0.0
2018-Jun-10 18:31N 33°44' W 118°16'0 0.0
2018-Jun-10 18:00N 33°44' W 118°16'0 0.0
2018-Jun-10 17:30N 33°44' W 118°16'0 0.7
2018-Jun-10 17:01N 33°44' W 118°17'3 6.7
2018-Jun-10 16:30N 33°41' W 118°14'715.2
2018-Jun-10 16:00N 33°35' W 118°08'1 0.9
2018-Jun-10 15:13N 33°35' W 118°08'210.2
2018-Jun-10 15:00N 33°37' W 118°10'9 9.3
2018-Jun-10 14:00N 33°44' W 118°16'511.0
2018-Jun-10 13:30N 33°40' W 118°12'4 4.9
2018-Jun-10 12:41N 33°36' W 118°10'316.0
2018-Jun-10 12:30N 33°39' W 118°12'713.2
2018-Jun-10 12:00N 33°44' W 118°16'0 0.0
2018-Jun-10 01:21N 33°44' W 118°16'410.7
2018-Jun-10 01:01N 33°41' W 118°13'811.4
2018-Jun-10 00:19N 33°35' W 118°08'414.0
2018-Jun-10 00:00N 33°38' W 118°11'714.4
2018-Jun-09 23:30N 33°44' W 118°16'0 0.2
2018-Jun-09 23:00N 33°44' W 118°16'0 0.0
2018-Jun-09 22:30N 33°44' W 118°16'0 0.0
2018-Jun-09 22:00N 33°44' W 118°16'0 0.0
2018-Jun-09 21:30N 33°44' W 118°16'813.7
2018-Jun-09 20:55N 33°38' W 118°10'2 2.7
2018-Jun-09 20:15N 33°36' W 118°09'417.1
2018-Jun-09 20:00N 33°40' W 118°12'510.9
2018-Jun-09 19:30N 33°44' W 118°16'0 0.0
2018-Jun-09 19:00N 33°44' W 118°16'610.9
2018-Jun-09 18:30N 33°40' W 118°12'7 6.1
2018-Jun-09 17:17N 33°34' W 118°07'6 2.7
2018-Jun-09 14:57N 33°39' W 118°11'614.2
2018-Jun-09 14:30N 33°44' W 118°16'0 0.7
2018-Jun-09 14:00N 33°44' W 118°16'4 8.6
2018-Jun-09 13:31N 33°41' W 118°13'7 9.6
2018-Jun-09 12:46N 33°35' W 118°08'516.5
2018-Jun-09 12:28N 33°39' W 118°11'614.0
2018-Jun-09 12:00N 33°44' W 118°16'0 0.0
2018-Jun-09 02:01N 33°44' W 118°16'0 0.6
2018-Jun-09 02:00N 33°44' W 118°16'4 8.7
2018-Jun-09 01:30N 33°41' W 118°13'916.1
2018-Jun-09 00:59N 33°34' W 118°07'1 2.5
2018-Jun-09 00:31N 33°35' W 118°08'0 0.0
2018-Jun-09 00:01N 33°35' W 118°08'5 8.2
2018-Jun-08 23:23N 33°39' W 118°11'616.4
2018-Jun-08 23:00N 33°43' W 118°16'1 1.3
2018-Jun-08 22:30N 33°44' W 118°16'3 5.8
2018-Jun-08 22:00N 33°43' W 118°13'4 8.0
2018-Jun-08 21:30N 33°44' W 118°08'815.7
2018-Jun-08 21:00N 33°36' W 118°08'1 1.7
2018-Jun-08 20:28N 33°35' W 118°08'816.7
2018-Jun-08 20:01N 33°41' W 118°13'4 7.4
2018-Jun-08 19:31N 33°44' W 118°16'0 0.0
2018-Jun-08 19:01N 33°44' W 118°16'0 0.0
2018-Jun-08 18:29N 33°44' W 118°16'0 0.0
2018-Jun-08 18:01N 33°44' W 118°16'0 0.0
2018-Jun-08 17:31N 33°44' W 118°16'0 0.7
2018-Jun-08 17:00N 33°44' W 118°16'4 7.6
2018-Jun-08 16:30N 33°41' W 118°13'5 4.2
2018-Jun-08 15:13N 33°37' W 118°10'315.6
2018-Jun-08 15:00N 33°40' W 118°12'611.9
2018-Jun-08 14:31N 33°44' W 118°16'0 0.0
2018-Jun-08 14:01N 33°44' W 118°16'611.1
2018-Jun-08 13:30N 33°40' W 118°12'6 8.1
2018-Jun-08 12:46N 33°35' W 118°08'516.3
2018-Jun-08 12:28N 33°39' W 118°11'714.4
2018-Jun-08 12:00N 33°44' W 118°16'  

Dump ship's entire track history